Terminal Aerodrome Forecast
Issued by NWS Bismarck, ND

Home | Current Version | Previous Version | Graphics & Text | Print | Product List | Glossary On
Versions: 1 2 3 4 5 6 7 8 9 10 11 12 13 14
162
FTUS43 KBIS 250521
TAFBIS
TAF
KBIS 250521Z 2506/2606 05004KT P6SM FEW080 SCT250
     FM251200 34006KT P6SM VCTS BKN080CB BKN250
     FM251800 36008KT P6SM FEW110 SCT200
     FM260100 35007KT P6SM BKN130 BKN200=

USA.gov is the U.S. government's official web portal to all federal, state and local government web resources and services.